KGNV/GNV METAR and TAF weather

Enter ICAO airport designator
Station Type Date Time Source
KGNV METAR 2022/01/25 05:53 UTC NOAA

KGNV 250553Z AUTO 00000KT 10SM CLR 08/03 A3004 RMK AO2 SLP172 T00780033 10100 20072 58001


Station Type Date Time Source
KGNV Decoded METAR 2022/01/25 05:53 UTC NOAA

GAINESVILLE REGIONAL AIRPORT , FL, United States (KGNV) 29-42N 082-17W 45M
Jan 25, 2022 - 12:53 AM EST / 2022.01.25 0553 UTC
Wind: Calm:0
Visibility: 10 mile(s):0
Sky conditions: clear
Temperature: 46.0 F (7.8 C)
Dew Point: 37.9 F (3.3 C)
Relative Humidity: 73%
Pressure (altimeter): 30.04 in. Hg (1017 hPa)
Pressure tendency: 0.00 inches (0.1 hPa) lower than three hours ago
ob: KGNV 250553Z AUTO 00000KT 10SM CLR 08/03 A3004 RMK AO2 SLP172 T00780033 10100 20072 58001
cycle: 6

Station Type Date Time Source
KGNV TAF 2022/01/25 06:24 UTC NOAA

TAF KGNV 250522Z 2506/2606 VRB02KT P6SM SCT120 OVC250
FM251100 VRB04KT P6SM VCSH SCT040 BKN070 OVC100
FM251600 11004KT 6SM -RA BR BKN020 OVC035
FM252100 VRB02KT 3SM -RA BR OVC015
FM260000 VRB02KT 3SM -RA BR OVC007

Example: see airport list